createdAt,value
2022-10-05T00:00:14.020Z,6.80
2022-10-05T00:01:14.088Z,6.78
2022-10-05T00:02:14.075Z,6.77
2022-10-05T00:03:14.057Z,6.75
2022-10-05T00:04:14.275Z,6.74
2022-10-05T00:05:14.131Z,6.74
2022-10-05T00:06:14.009Z,6.74
2022-10-05T00:07:14.086Z,6.73
2022-10-05T00:08:13.849Z,6.71
2022-10-05T00:09:14.088Z,6.70
2022-10-05T00:10:14.016Z,6.68
2022-10-05T00:11:13.850Z,6.66
2022-10-05T00:12:13.940Z,6.66
2022-10-05T00:13:14.085Z,6.66
2022-10-05T00:14:14.245Z,6.66
2022-10-05T00:15:13.929Z,6.65
2022-10-05T00:16:14.072Z,6.65
2022-10-05T00:17:14.087Z,6.64
2022-10-05T00:18:14.247Z,6.64
2022-10-05T00:19:14.085Z,6.63
2022-10-05T00:20:13.925Z,6.61
2022-10-05T00:21:13.766Z,6.59
2022-10-05T00:22:13.702Z,6.57
2022-10-05T00:23:14.087Z,6.56
2022-10-05T00:24:13.925Z,6.56
2022-10-05T00:25:13.771Z,6.55
2022-10-05T00:26:13.695Z,6.55
2022-10-05T00:27:13.764Z,6.53
2022-10-05T00:28:13.742Z,6.53
2022-10-05T00:29:13.571Z,6.53
2022-10-05T00:30:13.929Z,6.54
2022-10-05T00:31:13.564Z,6.54
2022-10-05T00:32:13.766Z,6.55
2022-10-05T00:33:13.772Z,6.54
2022-10-05T00:34:13.606Z,6.54
2022-10-05T00:35:13.535Z,6.54
2022-10-05T00:36:13.608Z,6.53
2022-10-05T00:37:13.605Z,6.53
2022-10-05T00:38:13.706Z,6.53
2022-10-05T00:39:13.591Z,6.55
2022-10-05T00:40:13.930Z,6.58
2022-10-05T00:41:13.766Z,6.61
2022-10-05T00:42:13.607Z,6.64
2022-10-05T00:43:13.451Z,6.67
2022-10-05T00:44:13.368Z,6.67
2022-10-05T00:45:13.479Z,6.67
2022-10-05T00:46:13.445Z,6.67
2022-10-05T00:47:13.454Z,6.65
2022-10-05T00:48:13.606Z,6.64
2022-10-05T00:49:13.766Z,6.62
2022-10-05T00:50:13.610Z,6.58
2022-10-05T00:51:13.769Z,6.57
2022-10-05T00:52:13.284Z,6.56
2022-10-05T00:53:13.293Z,6.54
2022-10-05T00:54:18.071Z,6.52
2022-10-05T00:55:13.460Z,6.51
2022-10-05T00:56:13.365Z,6.49
2022-10-05T00:57:13.301Z,6.45
2022-10-05T00:58:13.376Z,6.42
2022-10-05T00:59:13.212Z,6.39
2022-10-05T01:00:13.604Z,6.38
2022-10-05T01:01:13.238Z,6.36
2022-10-05T01:02:13.228Z,6.34
2022-10-05T01:03:13.283Z,6.33
2022-10-05T01:04:13.285Z,6.33
2022-10-05T01:05:13.130Z,6.33
2022-10-05T01:06:13.092Z,6.34
2022-10-05T01:07:13.207Z,6.35
2022-10-05T01:08:13.293Z,6.36
2022-10-05T01:09:13.125Z,6.35
2022-10-05T01:10:13.055Z,6.34
2022-10-05T01:11:13.125Z,6.31
2022-10-05T01:12:13.289Z,6.29
2022-10-05T01:13:13.214Z,6.28
2022-10-05T01:14:13.045Z,6.26
2022-10-05T01:15:13.448Z,6.26
2022-10-05T01:16:13.094Z,6.25
2022-10-05T01:17:12.963Z,6.24
2022-10-05T01:18:13.043Z,6.25
2022-10-05T01:19:13.214Z,6.23
2022-10-05T01:20:12.965Z,6.24
2022-10-05T01:21:12.952Z,6.24
2022-10-05T01:22:13.135Z,6.25
2022-10-05T01:23:13.125Z,6.26
2022-10-05T01:24:13.048Z,6.25
2022-10-05T01:25:12.905Z,6.25
2022-10-05T01:26:13.285Z,6.24
2022-10-05T01:27:12.996Z,6.24
2022-10-05T01:28:13.081Z,6.24
2022-10-05T01:29:12.883Z,6.23
2022-10-05T01:30:12.965Z,6.23
2022-10-05T01:31:13.029Z,6.22
2022-10-05T01:32:12.965Z,6.22
2022-10-05T01:33:12.826Z,6.20
2022-10-05T01:34:12.965Z,6.18
2022-10-05T01:35:13.125Z,6.16
2022-10-05T01:36:12.738Z,6.15
2022-10-05T01:37:12.816Z,6.15
2022-10-05T01:38:12.762Z,6.15
2022-10-05T01:39:12.809Z,6.16
2022-10-05T01:40:12.977Z,6.18
2022-10-05T01:41:12.814Z,6.20
2022-10-05T01:42:12.986Z,6.21
2022-10-05T01:43:12.823Z,6.22
2022-10-05T01:44:12.980Z,6.22
2022-10-05T01:45:12.806Z,6.20
2022-10-05T01:46:13.036Z,6.20
2022-10-05T01:47:12.579Z,6.18
2022-10-05T01:48:12.967Z,6.17
2022-10-05T01:49:12.804Z,6.18
2022-10-05T01:50:12.973Z,6.17
2022-10-05T01:51:12.645Z,6.16
2022-10-05T01:52:12.967Z,6.15
2022-10-05T01:53:12.805Z,6.13
2022-10-05T01:54:13.035Z,6.11
2022-10-05T01:55:12.832Z,6.08
2022-10-05T01:56:12.647Z,6.06
2022-10-05T01:57:12.484Z,6.04
2022-10-05T01:58:12.426Z,6.01
2022-10-05T01:59:12.485Z,5.98
2022-10-05T02:00:12.644Z,5.95
2022-10-05T02:01:12.542Z,5.91
2022-10-05T02:02:12.710Z,5.88
2022-10-05T02:03:12.491Z,5.85
2022-10-05T02:04:17.727Z,5.81
2022-10-05T02:05:13.443Z,5.78
2022-10-05T02:06:12.328Z,5.76
2022-10-05T02:07:12.484Z,5.76
2022-10-05T02:08:12.409Z,5.77
2022-10-05T02:09:12.323Z,5.79
2022-10-05T02:10:12.426Z,5.81
2022-10-05T02:11:12.504Z,5.82
2022-10-05T02:12:12.323Z,5.82
2022-10-05T02:13:12.488Z,5.83
2022-10-05T02:14:12.333Z,5.82
2022-10-05T02:15:12.485Z,5.80
2022-10-05T02:16:12.215Z,5.77
2022-10-05T02:17:12.490Z,5.74
2022-10-05T02:18:12.326Z,5.70
2022-10-05T02:19:12.247Z,5.68
2022-10-05T02:20:12.324Z,5.66
2022-10-05T02:21:12.322Z,5.65
2022-10-05T02:22:12.324Z,5.64
2022-10-05T02:23:12.164Z,5.63
2022-10-05T02:24:12.324Z,5.62
2022-10-05T02:25:12.257Z,5.62
2022-10-05T02:26:12.324Z,5.63
2022-10-05T02:27:12.483Z,5.64
2022-10-05T02:28:12.134Z,5.63
2022-10-05T02:29:12.005Z,5.64
2022-10-05T02:30:16.350Z,5.65
2022-10-05T02:31:11.987Z,5.66
2022-10-05T02:32:12.130Z,5.67
2022-10-05T02:33:12.167Z,5.66
2022-10-05T02:34:12.005Z,5.67
2022-10-05T02:35:11.976Z,5.67
2022-10-05T02:36:11.924Z,5.66
2022-10-05T02:37:11.928Z,5.66
2022-10-05T02:38:12.007Z,5.64
2022-10-05T02:39:12.163Z,5.63
2022-10-05T02:40:12.327Z,5.62
2022-10-05T02:41:12.164Z,5.60
2022-10-05T02:42:11.843Z,5.58
2022-10-05T02:43:11.935Z,5.56
2022-10-05T02:44:11.842Z,5.54
2022-10-05T02:45:12.162Z,5.52
2022-10-05T02:46:11.823Z,5.49
2022-10-05T02:47:11.842Z,5.47
2022-10-05T02:48:11.770Z,5.48
2022-10-05T02:49:11.844Z,5.48
2022-10-05T02:50:11.773Z,5.47
2022-10-05T02:51:11.842Z,5.46
2022-10-05T02:52:11.782Z,5.46
2022-10-05T02:53:11.927Z,5.47
2022-10-05T02:54:12.008Z,5.48
2022-10-05T02:55:11.845Z,5.49
2022-10-05T02:56:11.773Z,5.48
2022-10-05T02:57:11.682Z,5.46
2022-10-05T02:58:11.693Z,5.45
2022-10-05T02:59:11.845Z,5.45
2022-10-05T03:00:11.681Z,5.43
2022-10-05T03:01:11.862Z,5.42
2022-10-05T03:02:11.667Z,5.43
2022-10-05T03:03:11.615Z,5.43
2022-10-05T03:04:11.682Z,5.42
2022-10-05T03:05:11.803Z,5.42
2022-10-05T03:06:11.521Z,5.41
2022-10-05T03:07:14.095Z,5.42
2022-10-05T03:08:11.765Z,5.45
2022-10-05T03:09:11.527Z,5.45
2022-10-05T03:10:11.684Z,5.47
2022-10-05T03:11:11.525Z,5.47
2022-10-05T03:12:12.008Z,5.48
2022-10-05T03:13:11.522Z,5.47
2022-10-05T03:14:11.460Z,5.46
2022-10-05T03:15:11.857Z,5.45
2022-10-05T03:16:11.483Z,5.44
2022-10-05T03:17:11.843Z,5.43
2022-10-05T03:18:11.689Z,5.43
2022-10-05T03:19:11.341Z,5.43
2022-10-05T03:20:11.685Z,5.43
2022-10-05T03:21:11.397Z,5.43
2022-10-05T03:22:11.698Z,5.41
2022-10-05T03:23:11.328Z,5.39
2022-10-05T03:24:11.363Z,5.41
2022-10-05T03:25:11.477Z,5.40
2022-10-05T03:26:11.312Z,5.40
2022-10-05T03:27:11.348Z,5.40
2022-10-05T03:28:11.325Z,5.40
2022-10-05T03:29:11.338Z,5.40
2022-10-05T03:30:11.692Z,5.42
2022-10-05T03:31:11.359Z,5.43
2022-10-05T03:32:11.360Z,5.45
2022-10-05T03:33:11.360Z,5.47
2022-10-05T03:34:11.365Z,5.48
2022-10-05T03:35:11.295Z,5.48
2022-10-05T03:36:11.139Z,5.48
2022-10-05T03:37:11.306Z,5.48
2022-10-05T03:38:11.362Z,5.47
2022-10-05T03:39:11.107Z,5.46
2022-10-05T03:40:11.139Z,5.44
2022-10-05T03:41:11.281Z,5.42
2022-10-05T03:42:11.146Z,5.41
2022-10-05T03:43:11.308Z,5.40
2022-10-05T03:44:11.364Z,5.40
2022-10-05T03:45:11.215Z,5.39
2022-10-05T03:46:11.198Z,5.40
2022-10-05T03:47:10.973Z,5.42
2022-10-05T03:48:11.366Z,5.42
2022-10-05T03:49:11.217Z,5.43
2022-10-05T03:50:11.043Z,5.41
2022-10-05T03:51:11.062Z,5.38
2022-10-05T03:52:10.997Z,5.38
2022-10-05T03:53:11.041Z,5.38
2022-10-05T03:54:10.908Z,5.37
2022-10-05T03:55:10.889Z,5.35
2022-10-05T03:56:10.959Z,5.34
2022-10-05T03:57:10.885Z,5.34
2022-10-05T03:58:11.366Z,5.34
2022-10-05T03:59:10.885Z,5.34
2022-10-05T04:00:10.839Z,5.36
2022-10-05T04:01:10.924Z,5.39
2022-10-05T04:02:10.875Z,5.41
2022-10-05T04:03:10.887Z,5.42
2022-10-05T04:04:10.890Z,5.43
2022-10-05T04:05:10.890Z,5.43
2022-10-05T04:06:10.745Z,5.41
2022-10-05T04:07:10.690Z,5.40
2022-10-05T04:08:10.809Z,5.40
2022-10-05T04:09:10.898Z,5.40
2022-10-05T04:10:10.830Z,5.39
2022-10-05T04:11:10.884Z,5.40
2022-10-05T04:12:11.047Z,5.39
2022-10-05T04:13:10.916Z,5.38
2022-10-05T04:14:10.758Z,5.39
2022-10-05T04:15:14.117Z,5.38
2022-10-05T04:16:12.067Z,5.38
2022-10-05T04:17:11.228Z,5.36
2022-10-05T04:18:11.049Z,5.37
2022-10-05T04:19:10.890Z,5.37
2022-10-05T04:20:10.568Z,5.36
2022-10-05T04:21:10.886Z,5.35
2022-10-05T04:22:11.056Z,5.33
2022-10-05T04:23:10.895Z,5.32
2022-10-05T04:24:10.497Z,5.33
2022-10-05T04:25:10.568Z,5.31
2022-10-05T04:26:10.538Z,5.31
2022-10-05T04:27:10.727Z,5.32
2022-10-05T04:28:10.564Z,5.34
2022-10-05T04:29:10.662Z,5.37
2022-10-05T04:30:10.407Z,5.43
2022-10-05T04:31:10.607Z,5.51
2022-10-05T04:32:10.494Z,5.59
2022-10-05T04:33:11.210Z,5.67
2022-10-05T04:34:10.416Z,5.72
2022-10-05T04:35:10.359Z,5.75
2022-10-05T04:36:10.406Z,5.79
2022-10-05T04:37:10.406Z,5.80
2022-10-05T04:38:10.405Z,5.80
2022-10-05T04:39:10.565Z,5.78
2022-10-05T04:40:10.409Z,5.76
2022-10-05T04:41:10.341Z,5.74
2022-10-05T04:42:10.487Z,5.73
2022-10-05T04:43:10.334Z,5.75
2022-10-05T04:44:10.518Z,5.78
2022-10-05T04:45:10.257Z,5.81
2022-10-05T04:46:10.753Z,5.85
2022-10-05T04:47:10.381Z,5.86
2022-10-05T04:48:10.189Z,5.88
2022-10-05T04:49:10.176Z,5.87
2022-10-05T04:50:10.405Z,5.85
2022-10-05T04:51:10.365Z,5.83
2022-10-05T04:52:10.408Z,5.81
2022-10-05T04:53:10.246Z,5.83
2022-10-05T04:54:10.407Z,5.85
2022-10-05T04:55:10.325Z,5.88
2022-10-05T04:56:10.164Z,5.90
2022-10-05T04:57:10.098Z,5.91
2022-10-05T04:58:10.168Z,5.92
2022-10-05T04:59:10.024Z,5.94
2022-10-05T05:00:10.099Z,5.95
2022-10-05T05:01:10.093Z,5.96
2022-10-05T05:02:10.087Z,5.95
2022-10-05T05:03:10.095Z,5.94
2022-10-05T05:04:10.174Z,5.92
2022-10-05T05:05:10.886Z,5.90
2022-10-05T05:06:17.471Z,5.87
2022-10-05T05:07:11.216Z,5.84
2022-10-05T05:08:10.169Z,5.81
2022-10-05T05:09:10.103Z,5.78
2022-10-05T05:10:10.405Z,5.78
2022-10-05T05:11:15.042Z,5.76
2022-10-05T05:12:11.515Z,5.76
2022-10-05T05:13:10.014Z,5.77
2022-10-05T05:14:09.853Z,5.79
2022-10-05T05:15:10.094Z,5.81
2022-10-05T05:16:09.925Z,5.83
2022-10-05T05:17:13.162Z,5.86
2022-10-05T05:18:10.097Z,5.89
2022-10-05T05:19:09.935Z,5.90
2022-10-05T05:20:10.108Z,5.89
2022-10-05T05:21:09.773Z,5.88
2022-10-05T05:22:09.861Z,5.86
2022-10-05T05:23:09.932Z,5.84
2022-10-05T05:24:09.848Z,5.82
2022-10-05T05:25:10.280Z,5.81
2022-10-05T05:26:09.770Z,5.80
2022-10-05T05:27:09.928Z,5.78
2022-10-05T05:28:10.119Z,5.76
2022-10-05T05:29:09.789Z,5.76
2022-10-05T05:30:09.764Z,5.76
2022-10-05T05:31:09.733Z,5.75
2022-10-05T05:32:09.854Z,5.74
2022-10-05T05:33:09.783Z,5.73
2022-10-05T05:34:09.860Z,5.73
2022-10-05T05:35:09.694Z,5.72
2022-10-05T05:36:09.540Z,5.72
2022-10-05T05:37:09.931Z,5.72
2022-10-05T05:38:09.557Z,5.73
2022-10-05T05:39:09.609Z,5.74
2022-10-05T05:40:09.766Z,5.74
2022-10-05T05:41:09.604Z,5.75
2022-10-05T05:42:09.768Z,5.76
2022-10-05T05:43:09.611Z,5.76
2022-10-05T05:44:09.764Z,5.79
2022-10-05T05:45:10.562Z,5.82
2022-10-05T05:46:09.664Z,5.85
2022-10-05T05:47:10.204Z,5.86
2022-10-05T05:48:09.522Z,5.88
2022-10-05T05:49:09.616Z,5.89
2022-10-05T05:50:10.087Z,5.89
2022-10-05T05:51:09.603Z,5.89
2022-10-05T05:52:09.766Z,5.90
2022-10-05T05:53:09.612Z,5.91
2022-10-05T05:54:09.763Z,5.92
2022-10-05T05:55:09.443Z,5.95
2022-10-05T05:56:09.442Z,5.99
2022-10-05T05:57:09.422Z,6.01
2022-10-05T05:58:09.542Z,6.04
2022-10-05T05:59:13.533Z,6.07
2022-10-05T06:00:09.546Z,6.11
2022-10-05T06:01:25.022Z,6.15
2022-10-05T06:02:10.532Z,6.17
2022-10-05T06:03:09.293Z,6.20
2022-10-05T06:04:09.448Z,6.24
2022-10-05T06:05:09.282Z,6.28
2022-10-05T06:06:09.443Z,6.33
2022-10-05T06:07:09.385Z,6.37
2022-10-05T06:08:09.357Z,6.43
2022-10-05T06:09:09.129Z,6.53
2022-10-05T06:10:09.210Z,6.62
2022-10-05T06:11:09.303Z,6.71
2022-10-05T06:12:09.443Z,6.82
2022-10-05T06:13:09.922Z,6.92
2022-10-05T06:14:09.282Z,7.01
2022-10-05T06:15:09.931Z,7.08
2022-10-05T06:16:09.175Z,7.15
2022-10-05T06:17:09.045Z,7.21
2022-10-05T06:18:09.224Z,7.25
2022-10-05T06:19:09.109Z,7.29
2022-10-05T06:20:09.442Z,7.35
2022-10-05T06:21:09.282Z,7.41
2022-10-05T06:22:09.451Z,7.46
2022-10-05T06:23:09.065Z,7.51
2022-10-05T06:24:09.127Z,7.56
2022-10-05T06:25:09.129Z,7.62
2022-10-05T06:26:10.927Z,7.67
2022-10-05T06:27:08.973Z,7.72
2022-10-05T06:28:09.281Z,7.76
2022-10-05T06:29:08.981Z,7.80
2022-10-05T06:30:08.975Z,7.84
2022-10-05T06:31:09.036Z,7.87
2022-10-05T06:32:09.029Z,7.91
2022-10-05T06:33:08.818Z,7.95
2022-10-05T06:34:09.121Z,7.99
2022-10-05T06:35:10.270Z,8.03
2022-10-05T06:36:09.122Z,8.07
2022-10-05T06:37:09.930Z,8.10
2022-10-05T06:38:08.800Z,8.12
2022-10-05T06:39:08.753Z,8.15
2022-10-05T06:40:08.891Z,8.18
2022-10-05T06:41:08.800Z,8.23
2022-10-05T06:42:08.979Z,8.28
2022-10-05T06:43:08.962Z,8.32
2022-10-05T06:44:09.150Z,8.36
2022-10-05T06:45:08.963Z,8.40
2022-10-05T06:46:08.952Z,8.46
2022-10-05T06:47:09.451Z,8.52
2022-10-05T06:48:09.130Z,8.56
2022-10-05T06:49:09.612Z,8.59
2022-10-05T06:50:08.613Z,8.60
2022-10-05T06:51:08.653Z,8.62
2022-10-05T06:52:08.799Z,8.65
2022-10-05T06:53:10.901Z,8.68
2022-10-05T06:54:09.460Z,8.72
2022-10-05T06:55:13.279Z,8.77
2022-10-05T06:56:09.778Z,8.82
2022-10-05T06:57:08.480Z,8.88
2022-10-05T06:58:08.652Z,8.91
2022-10-05T06:59:08.487Z,8.93
2022-10-05T07:00:08.606Z,8.97
2022-10-05T07:01:09.054Z,9.00
2022-10-05T07:02:08.536Z,9.05
2022-10-05T07:03:08.404Z,9.12
2022-10-05T07:04:08.570Z,9.20
2022-10-05T07:05:08.498Z,9.24
2022-10-05T07:06:08.582Z,9.29
2022-10-05T07:07:08.643Z,9.32
2022-10-05T07:08:08.851Z,9.37
2022-10-05T07:09:08.414Z,9.40
2022-10-05T07:10:08.489Z,9.42
2022-10-05T07:11:08.641Z,9.45
2022-10-05T07:12:08.594Z,9.50
2022-10-05T07:13:08.479Z,9.53
2022-10-05T07:14:12.482Z,9.55
2022-10-05T07:15:08.330Z,9.58
2022-10-05T07:16:08.512Z,9.62
2022-10-05T07:17:08.639Z,9.67
2022-10-05T07:18:08.271Z,9.70
2022-10-05T07:19:14.726Z,9.75
2022-10-05T07:20:08.338Z,9.78
2022-10-05T07:21:09.602Z,9.81
2022-10-05T07:23:09.608Z,9.89
2022-10-05T07:24:12.640Z,9.92
2022-10-05T07:25:08.639Z,9.96
2022-10-05T07:26:08.352Z,9.99
2022-10-05T07:27:08.971Z,10.05
2022-10-05T07:28:08.543Z,10.11
2022-10-05T07:29:08.123Z,10.17
2022-10-05T07:30:08.258Z,10.24
2022-10-05T07:31:08.423Z,10.30
2022-10-05T07:32:08.178Z,10.36
2022-10-05T07:33:08.015Z,10.42
2022-10-05T07:34:08.521Z,10.47
2022-10-05T07:35:08.019Z,10.52
2022-10-05T07:36:08.170Z,10.55
2022-10-05T07:37:08.013Z,10.59
2022-10-05T07:38:29.291Z,10.61
2022-10-05T07:39:07.921Z,10.62
2022-10-05T07:40:07.936Z,10.64
2022-10-05T07:41:08.002Z,10.69
2022-10-05T07:42:07.931Z,10.74
2022-10-05T07:43:08.004Z,10.78
2022-10-05T07:44:12.514Z,10.83
2022-10-05T07:45:08.982Z,10.89
2022-10-05T07:46:08.073Z,10.95
2022-10-05T07:47:11.861Z,11.02
2022-10-05T07:48:07.961Z,11.07
2022-10-05T07:49:08.752Z,11.11
2022-10-05T07:50:07.845Z,11.12
2022-10-05T07:51:08.329Z,11.13
2022-10-05T07:52:07.959Z,11.14
2022-10-05T07:53:07.850Z,11.15
2022-10-05T07:54:07.920Z,11.18
2022-10-05T07:55:08.010Z,11.20
2022-10-05T07:56:07.858Z,11.22
2022-10-05T07:57:07.776Z,11.27
2022-10-05T07:58:07.939Z,11.34
2022-10-05T07:59:08.009Z,11.40
2022-10-05T08:00:07.846Z,11.44
2022-10-05T08:01:09.283Z,11.46
2022-10-05T08:02:07.992Z,11.50
2022-10-05T08:03:07.669Z,11.55
2022-10-05T08:04:07.847Z,11.62
2022-10-05T08:05:08.005Z,11.67
2022-10-05T08:06:07.841Z,11.71
2022-10-05T08:07:07.684Z,11.76
2022-10-05T08:08:07.721Z,11.79
2022-10-05T08:09:07.690Z,11.82
2022-10-05T08:10:07.844Z,11.86
2022-10-05T08:11:07.690Z,11.91
2022-10-05T08:12:07.855Z,11.97
2022-10-05T08:13:07.491Z,12.05
2022-10-05T08:14:07.528Z,12.12
2022-10-05T08:15:07.523Z,12.17
2022-10-05T08:16:07.603Z,12.21
2022-10-05T08:17:07.459Z,12.23
2022-10-05T08:18:07.538Z,12.26
2022-10-05T08:19:07.450Z,12.28
2022-10-05T08:20:07.847Z,12.29
2022-10-05T08:21:07.459Z,12.29
2022-10-05T08:22:07.360Z,12.28
2022-10-05T08:23:07.530Z,12.27
2022-10-05T08:24:07.370Z,12.26
2022-10-05T08:25:11.846Z,12.26
2022-10-05T08:26:07.884Z,12.28
2022-10-05T08:27:07.370Z,12.32
2022-10-05T08:28:07.383Z,12.36
2022-10-05T08:29:10.288Z,12.40
2022-10-05T08:30:08.494Z,12.44
2022-10-05T08:31:07.433Z,12.47
2022-10-05T08:32:07.859Z,12.47
2022-10-05T08:33:07.361Z,12.47
2022-10-05T08:34:07.878Z,12.46
2022-10-05T08:35:07.211Z,12.46
2022-10-05T08:36:07.370Z,12.45
2022-10-05T08:37:07.370Z,12.43
2022-10-05T08:38:07.373Z,12.42
2022-10-05T08:39:07.382Z,12.41
2022-10-05T08:40:07.372Z,12.40
2022-10-05T08:41:07.143Z,12.38
2022-10-05T08:42:07.214Z,12.37
2022-10-05T08:43:07.155Z,12.36
2022-10-05T08:44:07.379Z,12.35
2022-10-05T08:45:07.370Z,12.38
2022-10-05T08:46:07.583Z,12.42
2022-10-05T08:47:07.374Z,12.46
2022-10-05T08:48:07.207Z,12.50
2022-10-05T08:49:07.365Z,12.55
2022-10-05T08:50:11.194Z,12.61
2022-10-05T08:51:07.131Z,12.68
2022-10-05T08:52:07.233Z,12.73
2022-10-05T08:53:07.151Z,12.78
2022-10-05T08:54:07.221Z,12.84
2022-10-05T08:55:08.012Z,12.90
2022-10-05T08:56:07.053Z,12.98
2022-10-05T08:57:08.647Z,13.06
2022-10-05T08:58:07.210Z,13.13
2022-10-05T08:59:07.061Z,13.19
2022-10-05T09:00:06.998Z,13.24
2022-10-05T09:01:07.830Z,13.29
2022-10-05T09:02:06.952Z,13.35
2022-10-05T09:03:07.048Z,13.41
2022-10-05T09:04:07.208Z,13.48
2022-10-05T09:05:07.051Z,13.54
2022-10-05T09:06:06.887Z,13.62
2022-10-05T09:07:07.057Z,13.69
2022-10-05T09:08:06.803Z,13.76
2022-10-05T09:09:06.834Z,13.81
2022-10-05T09:10:06.883Z,13.86
2022-10-05T09:11:06.823Z,13.91
2022-10-05T09:12:08.488Z,13.99
2022-10-05T09:13:07.044Z,14.07
2022-10-05T09:14:06.731Z,14.13
2022-10-05T09:15:24.960Z,14.17
2022-10-05T09:16:11.799Z,14.21
2022-10-05T09:17:06.732Z,14.25
2022-10-05T09:18:06.733Z,14.30
2022-10-05T09:19:07.363Z,14.34
2022-10-05T09:20:06.787Z,14.41
2022-10-05T09:21:06.855Z,14.47
2022-10-05T09:22:06.700Z,14.52
2022-10-05T09:23:06.565Z,14.58
2022-10-05T09:24:06.661Z,14.64
2022-10-05T09:25:06.731Z,14.72
2022-10-05T09:26:06.591Z,14.79
2022-10-05T09:27:06.532Z,14.86
2022-10-05T09:28:06.603Z,14.93
2022-10-05T09:29:06.730Z,14.99
2022-10-05T09:30:06.671Z,15.06
2022-10-05T09:31:06.514Z,15.12
2022-10-05T09:32:06.576Z,15.17
2022-10-05T09:33:06.728Z,15.20
2022-10-05T09:34:06.656Z,15.23
2022-10-05T09:35:06.491Z,15.29
2022-10-05T09:36:06.883Z,15.35
2022-10-05T09:37:06.503Z,15.41
2022-10-05T09:38:06.931Z,15.45
2022-10-05T09:39:06.412Z,15.48
2022-10-05T09:40:06.386Z,15.49
2022-10-05T09:41:06.352Z,15.53
2022-10-05T09:42:06.362Z,15.58
2022-10-05T09:43:06.359Z,15.63
2022-10-05T09:44:06.570Z,15.66
2022-10-05T09:45:06.412Z,15.69
2022-10-05T09:46:06.305Z,15.71
2022-10-05T09:47:06.514Z,15.73
2022-10-05T09:48:06.575Z,15.74
2022-10-05T09:49:06.412Z,15.76
2022-10-05T09:50:06.276Z,15.75
2022-10-05T09:51:06.193Z,15.77
2022-10-05T09:52:06.267Z,15.82
2022-10-05T09:53:06.443Z,15.87
2022-10-05T09:54:06.170Z,15.91
2022-10-05T09:55:06.181Z,15.95
2022-10-05T09:56:06.574Z,15.97
2022-10-05T09:57:06.112Z,15.98
2022-10-05T09:58:06.086Z,16.02
2022-10-05T09:59:06.415Z,16.06
2022-10-05T10:01:09.963Z,16.11
2022-10-05T10:02:07.266Z,16.14
2022-10-05T10:03:06.293Z,16.18
2022-10-05T10:04:06.064Z,16.22
2022-10-05T10:05:06.203Z,16.24
2022-10-05T10:06:06.034Z,16.26
2022-10-05T10:07:06.094Z,16.26
2022-10-05T10:08:06.117Z,16.25
2022-10-05T10:09:05.957Z,16.24
2022-10-05T10:10:06.224Z,16.24
2022-10-05T10:11:09.925Z,16.25
2022-10-05T10:12:06.084Z,16.25
2022-10-05T10:13:06.286Z,16.25
2022-10-05T10:14:06.065Z,16.25
2022-10-05T10:15:05.917Z,16.26
2022-10-05T10:16:06.074Z,16.29
2022-10-05T10:17:05.865Z,16.31
2022-10-05T10:18:06.015Z,16.33
2022-10-05T10:19:06.448Z,16.34
2022-10-05T10:20:06.054Z,16.35
2022-10-05T10:21:06.098Z,16.35
2022-10-05T10:22:05.828Z,16.35
2022-10-05T10:23:05.926Z,16.34
2022-10-05T10:24:06.025Z,16.34
2022-10-05T10:25:06.102Z,16.33
2022-10-05T10:26:06.248Z,16.32
2022-10-05T10:27:05.770Z,16.31
2022-10-05T10:28:07.480Z,16.31
2022-10-05T10:29:05.771Z,16.30
2022-10-05T10:30:05.775Z,16.30
2022-10-05T10:31:05.786Z,16.31
2022-10-05T10:32:05.926Z,16.33
2022-10-05T10:33:05.625Z,16.36
2022-10-05T10:34:05.767Z,16.38
2022-10-05T10:35:05.606Z,16.39
2022-10-05T10:36:07.067Z,16.40
2022-10-05T10:37:05.767Z,16.41
2022-10-05T10:38:05.783Z,16.42
2022-10-05T10:39:05.769Z,16.45
2022-10-05T10:40:05.618Z,16.49
2022-10-05T10:41:05.537Z,16.54
2022-10-05T10:42:05.607Z,16.56
2022-10-05T10:43:05.596Z,16.63
2022-10-05T10:44:05.607Z,16.69
2022-10-05T10:45:05.767Z,16.73
2022-10-05T10:46:05.651Z,16.77
2022-10-05T10:47:05.766Z,16.80
2022-10-05T10:48:05.926Z,16.83
2022-10-05T10:49:05.546Z,16.88
2022-10-05T10:50:05.429Z,16.93
2022-10-05T10:51:05.770Z,16.96
2022-10-05T10:52:05.601Z,16.99
2022-10-05T10:53:05.450Z,17.01
2022-10-05T10:54:05.390Z,17.10
2022-10-05T10:55:05.770Z,17.20
2022-10-05T10:56:05.446Z,17.28
2022-10-05T10:57:05.790Z,17.32
2022-10-05T10:58:05.382Z,17.39
2022-10-05T10:59:05.559Z,17.46
2022-10-05T11:00:05.372Z,17.51
2022-10-05T11:01:05.779Z,17.55
2022-10-05T11:02:05.651Z,17.58
2022-10-05T11:03:05.406Z,17.60
2022-10-05T11:04:05.295Z,17.61
2022-10-05T11:05:05.217Z,17.62
2022-10-05T11:06:05.281Z,17.63
2022-10-05T11:07:05.172Z,17.64
2022-10-05T11:08:05.282Z,17.64
2022-10-05T11:09:05.220Z,17.64
2022-10-05T11:10:05.130Z,17.66
2022-10-05T11:11:05.450Z,17.66
2022-10-05T11:12:05.608Z,17.66
2022-10-05T11:13:05.446Z,17.66
2022-10-05T11:14:05.126Z,17.67
2022-10-05T11:15:05.130Z,17.67
2022-10-05T11:16:05.110Z,17.66
2022-10-05T11:17:05.126Z,17.67
2022-10-05T11:18:05.053Z,17.68
2022-10-05T11:19:05.441Z,17.70
2022-10-05T11:20:05.490Z,17.73
2022-10-05T11:21:05.140Z,17.77
2022-10-05T11:22:05.082Z,17.80
2022-10-05T11:23:04.953Z,17.82
2022-10-05T11:24:05.632Z,17.84
2022-10-05T11:25:04.923Z,17.86
2022-10-05T11:26:05.639Z,17.87
2022-10-05T11:27:04.917Z,17.88
2022-10-05T11:28:05.322Z,17.91
2022-10-05T11:29:04.971Z,17.91
2022-10-05T11:30:05.044Z,17.92
2022-10-05T11:31:04.951Z,17.93
2022-10-05T11:32:04.969Z,17.95
2022-10-05T11:33:05.132Z,17.97
2022-10-05T11:34:09.123Z,17.99
2022-10-05T11:35:04.962Z,18.00
2022-10-05T11:36:04.804Z,18.01
2022-10-05T11:37:05.475Z,18.02
2022-10-05T11:38:04.785Z,18.04
2022-10-05T11:39:04.816Z,18.05
2022-10-05T11:40:04.788Z,18.08
2022-10-05T11:41:05.177Z,18.10
2022-10-05T11:42:04.735Z,18.10
2022-10-05T11:43:04.883Z,18.10
2022-10-05T11:44:06.951Z,18.10
2022-10-05T11:45:08.965Z,18.08
2022-10-05T11:46:09.467Z,18.09
2022-10-05T11:47:05.123Z,18.11
2022-10-05T11:48:04.974Z,18.11
2022-10-05T11:49:04.634Z,18.14
2022-10-05T11:50:04.677Z,18.17
2022-10-05T11:51:04.807Z,18.20
2022-10-05T11:52:04.587Z,18.21
2022-10-05T11:53:04.637Z,18.22
2022-10-05T11:54:05.306Z,18.22
2022-10-05T11:55:12.439Z,18.22
2022-10-05T11:56:05.933Z,18.21
2022-10-05T11:57:04.625Z,18.24
2022-10-05T11:58:04.965Z,18.27
2022-10-05T11:59:05.185Z,18.29
2022-10-05T12:00:04.997Z,18.32
2022-10-05T12:01:04.612Z,18.35
2022-10-05T12:02:05.958Z,18.38
2022-10-05T12:03:04.676Z,18.39
2022-10-05T12:04:04.698Z,18.40
2022-10-05T12:05:04.574Z,18.41
2022-10-05T12:06:04.485Z,18.40
2022-10-05T12:07:04.587Z,18.40
2022-10-05T12:08:04.689Z,18.40
2022-10-05T12:09:04.418Z,18.41
2022-10-05T12:10:04.552Z,18.48
2022-10-05T12:11:04.645Z,18.55
2022-10-05T12:12:04.428Z,18.60
2022-10-05T12:13:04.280Z,18.62
2022-10-05T12:14:04.327Z,18.65
2022-10-05T12:15:04.279Z,18.68
2022-10-05T12:16:04.685Z,18.69
2022-10-05T12:17:04.495Z,18.72
2022-10-05T12:18:04.324Z,18.73
2022-10-05T12:19:04.258Z,18.72
2022-10-05T12:20:04.549Z,18.71
2022-10-05T12:21:04.264Z,18.73
2022-10-05T12:22:04.345Z,18.76
2022-10-05T12:23:04.325Z,18.78
2022-10-05T12:24:04.180Z,18.79
2022-10-05T12:25:04.330Z,18.81
2022-10-05T12:26:04.364Z,18.83
2022-10-05T12:27:04.166Z,18.81
2022-10-05T12:28:04.152Z,18.79
2022-10-05T12:29:04.488Z,18.77
2022-10-05T12:30:04.653Z,18.75
2022-10-05T12:31:04.216Z,18.73
2022-10-05T12:32:04.173Z,18.72
2022-10-05T12:33:04.263Z,18.71
2022-10-05T12:34:04.103Z,18.70
2022-10-05T12:35:04.012Z,18.67
2022-10-05T12:36:05.970Z,18.64
2022-10-05T12:37:04.923Z,18.63
2022-10-05T12:38:04.648Z,18.60
2022-10-05T12:39:04.162Z,18.58
2022-10-05T12:40:04.332Z,18.56
2022-10-05T12:41:04.803Z,18.54
2022-10-05T12:42:04.090Z,18.53
2022-10-05T12:43:03.953Z,18.53
2022-10-05T12:44:04.021Z,18.51
2022-10-05T12:45:03.889Z,18.49
2022-10-05T12:46:05.055Z,18.48
2022-10-05T12:47:04.000Z,18.46
2022-10-05T12:48:04.193Z,18.46
2022-10-05T12:49:04.801Z,18.45
2022-10-05T12:50:04.182Z,18.44
2022-10-05T12:51:03.861Z,18.44
2022-10-05T12:52:03.842Z,18.44
2022-10-05T12:53:04.846Z,18.44
2022-10-05T12:54:03.788Z,18.44
2022-10-05T12:55:08.927Z,18.45
2022-10-05T12:56:04.003Z,18.46
2022-10-05T12:57:03.846Z,18.46
2022-10-05T12:58:03.848Z,18.46
2022-10-05T12:59:03.688Z,18.47
2022-10-05T13:00:03.696Z,18.47
2022-10-05T13:01:04.195Z,18.49
2022-10-05T13:02:03.851Z,18.51
2022-10-05T13:03:03.622Z,18.54
2022-10-05T13:04:03.787Z,18.56
2022-10-05T13:05:03.626Z,18.59
2022-10-05T13:06:03.851Z,18.60
2022-10-05T13:07:03.655Z,18.62
2022-10-05T13:08:03.845Z,18.62
2022-10-05T13:09:03.853Z,18.62